PWSweather.com
Personal Weather Stations
Station Observations
SUBOTICARS
SuboticaYU

SuboticaYU

Lat: 46.1296717, Lon: 19.641551

Elevation: 361

Station Type: Nexus

http://sumeteo.info

Latest ConditionsUpdated 3:30:01 PM GMT+01:01 Wednesday, Apr 25, 2018
Currently Today's Max Today's Min Today's Average
Temperature 81.8°F27.7°C 83.8°F28.8°C 47.1°F8.4°C 65.5°F18.6°C
Dew Point 51.5°F10.8°C 57.3°F14.1°C 42.5°F5.8°C 51.2°F10.7°C
Winds 6.9 mph SSW11.1 kmh SSW 8.1 mph SW13.0 kmh SW - 3.3 mph 5.3 kmh
Wind Gusts 8.1 mph13.0 kmh 13.8 mph22.2 kmh - -
Humidity 35% 89% 35% 64%
Pressure 29.55 in1000.7 mb 29.68 in1005.1 mb 29.55 in1000.7 mb -
Hour Temp Dew Point Humidity Winds Wind Gusts Pressure Precip Precip Rate Daily Precip Total
03:30 PM 81.8°F27.7°C 51.5°F10.8°C 35% 6.9 mph SSW11.1 kmh SSW 8.1 mph13.0 kmh 29.55 in1000.7 mb - 0.00 in0.0 mm 0.00 in0.0 mm
03:25 PM 82.6°F28.1°C 52.2°F11.2°C 35% 8.1 mph SW13.0 kmh SW 6.9 mph11.1 kmh 29.55 in1000.7 mb - 0.00 in0.0 mm 0.00 in0.0 mm
03:20 PM 82.9°F28.3°C 53.2°F11.8°C 36% 4.6 mph SSW7.4 kmh SSW 8.1 mph13.0 kmh 29.55 in1000.7 mb - 0.00 in0.0 mm 0.00 in0.0 mm
03:15 PM 82.0°F27.8°C 52.4°F11.3°C 36% 5.8 mph WNW9.3 kmh WNW 5.8 mph9.3 kmh 29.55 in1000.7 mb - 0.00 in0.0 mm 0.00 in0.0 mm
03:10 PM 81.5°F27.5°C 52.0°F11.1°C 36% 6.9 mph SSW11.1 kmh SSW 11.5 mph18.5 kmh 29.55 in1000.7 mb - 0.00 in0.0 mm 0.00 in0.0 mm
03:00 PM 81.3°F27.4°C 51.8°F11.0°C 36% 5.8 mph SW9.3 kmh SW 6.9 mph11.1 kmh 29.55 in1000.7 mb - 0.00 in0.0 mm 0.00 in0.0 mm
02:55 PM 81.8°F27.7°C 52.2°F11.2°C 36% 4.6 mph WSW7.4 kmh WSW 4.6 mph7.4 kmh 29.56 in1001.0 mb - 0.00 in0.0 mm 0.00 in0.0 mm
02:50 PM 82.1°F27.8°C 52.5°F11.4°C 36% 4.6 mph SSW7.4 kmh SSW 4.6 mph7.4 kmh 29.56 in1001.0 mb - 0.00 in0.0 mm 0.00 in0.0 mm
02:45 PM 81.5°F27.5°C 51.2°F10.7°C 35% 5.8 mph S9.3 kmh S 4.6 mph7.4 kmh 29.56 in1001.0 mb - 0.00 in0.0 mm 0.00 in0.0 mm
02:40 PM 82.8°F28.2°C 52.3°F11.3°C 35% 4.6 mph SW7.4 kmh SW 5.8 mph9.3 kmh 29.56 in1001.0 mb - 0.00 in0.0 mm 0.00 in0.0 mm
02:35 PM 83.3°F28.5°C 52.8°F11.6°C 35% 8.1 mph S13.0 kmh S 13.8 mph22.2 kmh 29.56 in1001.0 mb - 0.00 in0.0 mm 0.00 in0.0 mm
02:30 PM 83.2°F28.4°C 53.5°F11.9°C 36% 8.1 mph SSW13.0 kmh SSW 9.2 mph14.8 kmh 29.57 in1001.4 mb - 0.00 in0.0 mm 0.00 in0.0 mm
02:25 PM 83.3°F28.5°C 53.6°F12.0°C 36% 4.6 mph SW7.4 kmh SW 4.6 mph7.4 kmh 29.57 in1001.4 mb - 0.00 in0.0 mm 0.00 in0.0 mm
02:20 PM 82.3°F27.9°C 52.7°F11.5°C 36% 2.3 mph WSW3.7 kmh WSW 3.5 mph5.6 kmh 29.57 in1001.4 mb - 0.00 in0.0 mm 0.00 in0.0 mm
02:15 PM 82.9°F28.3°C 52.5°F11.4°C 35% 5.8 mph SSW9.3 kmh SSW 8.1 mph13.0 kmh 29.57 in1001.4 mb - 0.00 in0.0 mm 0.00 in0.0 mm
02:10 PM 83.1°F28.4°C 52.6°F11.4°C 35% 6.9 mph S11.1 kmh S 8.1 mph13.0 kmh 29.57 in1001.4 mb - 0.00 in0.0 mm 0.00 in0.0 mm
02:00 PM 82.2°F27.9°C 52.6°F11.4°C 36% 6.9 mph S11.1 kmh S 6.9 mph11.1 kmh 29.58 in1001.7 mb - 0.00 in0.0 mm 0.00 in0.0 mm
01:55 PM 83.1°F28.4°C 54.2°F12.3°C 37% 4.6 mph WSW7.4 kmh WSW 10.4 mph16.7 kmh 29.58 in1001.7 mb - 0.00 in0.0 mm 0.00 in0.0 mm
01:50 PM 83.0°F28.3°C 54.1°F12.3°C 37% 4.6 mph WSW7.4 kmh WSW 4.6 mph7.4 kmh 29.58 in1001.7 mb - 0.00 in0.0 mm 0.00 in0.0 mm
01:45 PM 82.4°F28.0°C 52.8°F11.6°C 36% 3.5 mph SW5.6 kmh SW 3.5 mph5.6 kmh 29.58 in1001.7 mb - 0.00 in0.0 mm 0.00 in0.0 mm
01:40 PM 83.8°F28.8°C 54.8°F12.7°C 37% 6.9 mph WSW11.1 kmh WSW 8.1 mph13.0 kmh 29.58 in1001.7 mb - 0.00 in0.0 mm 0.00 in0.0 mm
01:35 PM 83.1°F28.4°C 54.9°F12.7°C 38% 5.8 mph SW9.3 kmh SW 5.8 mph9.3 kmh 29.58 in1001.7 mb - 0.00 in0.0 mm 0.00 in0.0 mm
01:30 PM 81.7°F27.6°C 53.6°F12.0°C 38% 4.6 mph SW7.4 kmh SW 4.6 mph7.4 kmh 29.59 in1002.0 mb - 0.00 in0.0 mm 0.00 in0.0 mm
01:25 PM 82.5°F28.1°C 54.3°F12.4°C 38% 5.8 mph SSW9.3 kmh SSW 6.9 mph11.1 kmh 29.60 in1002.4 mb - 0.00 in0.0 mm 0.00 in0.0 mm
01:20 PM 82.9°F28.3°C 54.7°F12.6°C 38% 5.8 mph SSW9.3 kmh SSW 8.1 mph13.0 kmh 29.60 in1002.4 mb - 0.00 in0.0 mm 0.00 in0.0 mm
01:15 PM 83.5°F28.6°C 55.2°F12.9°C 38% 6.9 mph SSW11.1 kmh SSW 8.1 mph13.0 kmh 29.60 in1002.4 mb - 0.00 in0.0 mm 0.00 in0.0 mm
01:10 PM 83.5°F28.6°C 55.9°F13.3°C 39% 4.6 mph SSW7.4 kmh SSW 6.9 mph11.1 kmh 29.60 in1002.4 mb - 0.00 in0.0 mm 0.00 in0.0 mm
01:00 PM 82.4°F28.0°C 55.0°F12.8°C 39% 6.9 mph SSW11.1 kmh SSW 8.1 mph13.0 kmh 29.60 in1002.4 mb - 0.00 in0.0 mm 0.00 in0.0 mm
12:55 PM 82.2°F27.9°C 55.4°F13.0°C 40% 3.5 mph SSW5.6 kmh SSW 4.6 mph7.4 kmh 29.61 in1002.7 mb - 0.00 in0.0 mm 0.00 in0.0 mm
12:50 PM 82.4°F28.0°C 55.0°F12.8°C 39% 5.8 mph SSW9.3 kmh SSW 6.9 mph11.1 kmh 29.61 in1002.7 mb - 0.00 in0.0 mm 0.00 in0.0 mm
12:45 PM 82.2°F27.9°C 55.5°F13.1°C 40% 5.8 mph SW9.3 kmh SW 5.8 mph9.3 kmh 29.61 in1002.7 mb - 0.00 in0.0 mm 0.00 in0.0 mm
12:40 PM 82.0°F27.8°C 55.3°F12.9°C 40% 8.1 mph SSW13.0 kmh SSW 10.4 mph16.7 kmh 29.62 in1003.0 mb - 0.00 in0.0 mm 0.00 in0.0 mm
12:35 PM 81.5°F27.5°C 55.5°F13.1°C 41% 4.6 mph SW7.4 kmh SW 5.8 mph9.3 kmh 29.62 in1003.0 mb - 0.00 in0.0 mm 0.00 in0.0 mm
12:30 PM 81.9°F27.7°C 55.9°F13.3°C 41% 6.9 mph S11.1 kmh S 8.1 mph13.0 kmh 29.62 in1003.0 mb - 0.00 in0.0 mm 0.00 in0.0 mm
12:25 PM 81.5°F27.5°C 55.5°F13.1°C 41% 5.8 mph SSW9.3 kmh SSW 6.9 mph11.1 kmh 29.62 in1003.0 mb - 0.00 in0.0 mm 0.00 in0.0 mm
12:20 PM 81.7°F27.6°C 55.7°F13.2°C 41% 6.9 mph SSW11.1 kmh SSW 11.5 mph18.5 kmh 29.62 in1003.0 mb - 0.00 in0.0 mm 0.00 in0.0 mm
12:15 PM 81.5°F27.5°C 55.5°F13.1°C 41% 4.6 mph SSW7.4 kmh SSW 5.8 mph9.3 kmh 29.62 in1003.0 mb - 0.00 in0.0 mm 0.00 in0.0 mm
12:10 PM 81.3°F27.4°C 56.0°F13.3°C 42% 3.5 mph SSW5.6 kmh SSW 3.5 mph5.6 kmh 29.63 in1003.4 mb - 0.00 in0.0 mm 0.00 in0.0 mm
12:00 PM 80.5°F26.9°C 56.6°F13.7°C 44% 5.8 mph SSW9.3 kmh SSW 10.4 mph16.7 kmh 29.63 in1003.4 mb - 0.00 in0.0 mm 0.00 in0.0 mm
11:55 AM 79.6°F26.4°C 55.8°F13.2°C 44% 6.9 mph SSW11.1 kmh SSW 6.9 mph11.1 kmh 29.63 in1003.4 mb - 0.00 in0.0 mm 0.00 in0.0 mm
11:50 AM 80.6°F27.0°C 56.1°F13.4°C 43% 4.6 mph SSW7.4 kmh SSW 5.8 mph9.3 kmh 29.63 in1003.4 mb - 0.00 in0.0 mm 0.00 in0.0 mm
11:45 AM 81.0°F27.2°C 56.4°F13.6°C 43% 3.5 mph SW5.6 kmh SW 3.5 mph5.6 kmh 29.63 in1003.4 mb - 0.00 in0.0 mm 0.00 in0.0 mm
11:40 AM 80.6°F27.0°C 56.0°F13.3°C 43% 5.8 mph SSW9.3 kmh SSW 5.8 mph9.3 kmh 29.64 in1003.7 mb - 0.00 in0.0 mm 0.00 in0.0 mm
11:35 AM 80.1°F26.7°C 56.2°F13.4°C 44% 5.8 mph SSW9.3 kmh SSW 5.8 mph9.3 kmh 29.64 in1003.7 mb - 0.00 in0.0 mm 0.00 in0.0 mm
11:30 AM 80.2°F26.8°C 56.4°F13.6°C 44% 4.6 mph SW7.4 kmh SW 6.9 mph11.1 kmh 29.64 in1003.7 mb - 0.00 in0.0 mm 0.00 in0.0 mm
11:25 AM 79.6°F26.4°C 56.4°F13.6°C 45% 6.9 mph SSW11.1 kmh SSW 9.2 mph14.8 kmh 29.64 in1003.7 mb - 0.00 in0.0 mm 0.00 in0.0 mm
11:20 AM 79.7°F26.5°C 56.5°F13.6°C 45% 4.6 mph S7.4 kmh S 5.8 mph9.3 kmh 29.64 in1003.7 mb - 0.00 in0.0 mm 0.00 in0.0 mm
11:15 AM 79.3°F26.3°C 56.2°F13.4°C 45% 6.9 mph SSW11.1 kmh SSW 6.9 mph11.1 kmh 29.64 in1003.7 mb - 0.00 in0.0 mm 0.00 in0.0 mm
11:10 AM 79.5°F26.4°C 56.3°F13.5°C 45% 3.5 mph SSW5.6 kmh SSW 3.5 mph5.6 kmh 29.64 in1003.7 mb - 0.00 in0.0 mm 0.00 in0.0 mm
11:00 AM 79.2°F26.2°C 56.6°F13.7°C 46% 4.6 mph WSW7.4 kmh WSW 6.9 mph11.1 kmh 29.65 in1004.1 mb - 0.00 in0.0 mm 0.00 in0.0 mm
10:55 AM 79.5°F26.4°C 56.9°F13.8°C 46% 5.8 mph SW9.3 kmh SW 5.8 mph9.3 kmh 29.65 in1004.1 mb - 0.00 in0.0 mm 0.00 in0.0 mm
10:50 AM 79.0°F26.1°C 56.4°F13.6°C 46% 6.9 mph SSW11.1 kmh SSW 8.1 mph13.0 kmh 29.65 in1004.1 mb - 0.00 in0.0 mm 0.00 in0.0 mm
10:45 AM 78.8°F26.0°C 56.3°F13.5°C 46% 8.1 mph SSW13.0 kmh SSW 10.4 mph16.7 kmh 29.65 in1004.1 mb - 0.00 in0.0 mm 0.00 in0.0 mm
10:40 AM 78.4°F25.8°C 56.5°F13.6°C 47% 3.5 mph SW5.6 kmh SW 5.8 mph9.3 kmh 29.65 in1004.1 mb - 0.00 in0.0 mm 0.00 in0.0 mm
10:35 AM 78.1°F25.6°C 56.2°F13.4°C 47% 6.9 mph SW11.1 kmh SW 5.8 mph9.3 kmh 29.65 in1004.1 mb - 0.00 in0.0 mm 0.00 in0.0 mm
10:30 AM 78.0°F25.6°C 56.1°F13.4°C 47% 4.6 mph SW7.4 kmh SW 4.6 mph7.4 kmh 29.66 in1004.4 mb - 0.00 in0.0 mm 0.00 in0.0 mm
10:25 AM 78.2°F25.7°C 56.3°F13.5°C 47% 4.6 mph SSW7.4 kmh SSW 9.2 mph14.8 kmh 29.66 in1004.4 mb - 0.00 in0.0 mm 0.00 in0.0 mm
10:20 AM 78.2°F25.7°C 56.4°F13.6°C 47% 4.6 mph SSW7.4 kmh SSW 6.9 mph11.1 kmh 29.66 in1004.4 mb - 0.00 in0.0 mm 0.00 in0.0 mm
10:15 AM 77.7°F25.4°C 55.9°F13.3°C 47% 4.6 mph SW7.4 kmh SW 4.6 mph7.4 kmh 29.66 in1004.4 mb - 0.00 in0.0 mm 0.00 in0.0 mm
10:10 AM 77.4°F25.2°C 56.1°F13.4°C 48% 6.9 mph SW11.1 kmh SW 6.9 mph11.1 kmh 29.66 in1004.4 mb - 0.00 in0.0 mm 0.00 in0.0 mm
10:00 AM 77.0°F25.0°C 55.2°F12.9°C 47% 8.1 mph SW13.0 kmh SW 8.1 mph13.0 kmh 29.66 in1004.4 mb - 0.00 in0.0 mm 0.00 in0.0 mm
09:55 AM 76.7°F24.8°C 56.1°F13.4°C 49% 5.8 mph SW9.3 kmh SW 6.9 mph11.1 kmh 29.67 in1004.7 mb - 0.00 in0.0 mm 0.00 in0.0 mm
09:50 AM 77.0°F25.0°C 56.9°F13.8°C 50% 5.8 mph SSW9.3 kmh SSW 8.1 mph13.0 kmh 29.67 in1004.7 mb - 0.00 in0.0 mm 0.00 in0.0 mm
09:45 AM 76.6°F24.8°C 57.2°F14.0°C 51% 5.8 mph S9.3 kmh S 9.2 mph14.8 kmh 29.66 in1004.4 mb - 0.00 in0.0 mm 0.00 in0.0 mm
09:40 AM 76.3°F24.6°C 56.8°F13.8°C 51% 6.9 mph SSW11.1 kmh SSW 10.4 mph16.7 kmh 29.66 in1004.4 mb - 0.00 in0.0 mm 0.00 in0.0 mm
09:35 AM 76.0°F24.4°C 57.1°F13.9°C 52% 5.8 mph S9.3 kmh S 5.8 mph9.3 kmh 29.66 in1004.4 mb - 0.00 in0.0 mm 0.00 in0.0 mm
09:30 AM 75.8°F24.3°C 56.9°F13.8°C 52% 4.6 mph S7.4 kmh S 6.9 mph11.1 kmh 29.66 in1004.4 mb - 0.00 in0.0 mm 0.00 in0.0 mm
09:25 AM 75.4°F24.1°C 56.5°F13.6°C 52% 6.9 mph S11.1 kmh S 8.1 mph13.0 kmh 29.67 in1004.7 mb - 0.00 in0.0 mm 0.00 in0.0 mm
09:20 AM 75.6°F24.2°C 56.7°F13.7°C 52% 5.8 mph S9.3 kmh S 10.4 mph16.7 kmh 29.67 in1004.7 mb - 0.00 in0.0 mm 0.00 in0.0 mm
09:15 AM 75.4°F24.1°C 57.1°F13.9°C 53% 5.8 mph SW9.3 kmh SW 3.5 mph5.6 kmh 29.67 in1004.7 mb - 0.00 in0.0 mm 0.00 in0.0 mm
09:10 AM 75.0°F23.9°C 57.2°F14.0°C 54% 4.6 mph SSW7.4 kmh SSW 5.8 mph9.3 kmh 29.67 in1004.7 mb - 0.00 in0.0 mm 0.00 in0.0 mm
09:00 AM 74.2°F23.4°C 57.0°F13.9°C 55% 5.8 mph SSE9.3 kmh SSE 8.1 mph13.0 kmh 29.67 in1004.7 mb - 0.00 in0.0 mm 0.00 in0.0 mm
08:55 AM 73.9°F23.3°C 56.8°F13.8°C 55% 6.9 mph SW11.1 kmh SW 5.8 mph9.3 kmh 29.68 in1005.1 mb - 0.00 in0.0 mm 0.00 in0.0 mm
08:50 AM 73.8°F23.2°C 56.6°F13.7°C 55% 6.9 mph S11.1 kmh S 10.4 mph16.7 kmh 29.68 in1005.1 mb - 0.00 in0.0 mm 0.00 in0.0 mm
08:45 AM 73.0°F22.8°C 56.4°F13.6°C 56% 4.6 mph SSW7.4 kmh SSW 5.8 mph9.3 kmh 29.68 in1005.1 mb - 0.00 in0.0 mm 0.00 in0.0 mm
08:40 AM 72.9°F22.7°C 56.2°F13.4°C 56% 6.9 mph S11.1 kmh S 6.9 mph11.1 kmh 29.68 in1005.1 mb - 0.00 in0.0 mm 0.00 in0.0 mm
08:35 AM 72.9°F22.7°C 57.3°F14.1°C 58% 5.8 mph S9.3 kmh S 10.4 mph16.7 kmh 29.68 in1005.1 mb - 0.00 in0.0 mm 0.00 in0.0 mm
08:30 AM 72.7°F22.6°C 57.0°F13.9°C 58% 4.6 mph S7.4 kmh S 5.8 mph9.3 kmh 29.68 in1005.1 mb - 0.00 in0.0 mm 0.00 in0.0 mm
08:25 AM 72.1°F22.3°C 57.0°F13.9°C 59% 4.6 mph S7.4 kmh S 5.8 mph9.3 kmh 29.68 in1005.1 mb - 0.00 in0.0 mm 0.00 in0.0 mm
08:20 AM 72.0°F22.2°C 56.8°F13.8°C 59% 4.6 mph SSW7.4 kmh SSW 6.9 mph11.1 kmh 29.68 in1005.1 mb - 0.00 in0.0 mm 0.00 in0.0 mm
08:15 AM 71.6°F22.0°C 57.0°F13.9°C 60% 4.6 mph S7.4 kmh S 4.6 mph7.4 kmh 29.67 in1004.7 mb - 0.00 in0.0 mm 0.00 in0.0 mm
08:10 AM 70.9°F21.6°C 56.8°F13.8°C 61% 4.6 mph S7.4 kmh S 5.8 mph9.3 kmh 29.67 in1004.7 mb - 0.00 in0.0 mm 0.00 in0.0 mm
08:00 AM 70.2°F21.2°C 56.5°F13.6°C 62% 3.5 mph SSW5.6 kmh SSW 3.5 mph5.6 kmh 29.67 in1004.7 mb - 0.00 in0.0 mm 0.00 in0.0 mm
07:55 AM 69.4°F20.8°C 56.3°F13.5°C 63% 4.6 mph SSW7.4 kmh SSW 5.8 mph9.3 kmh 29.67 in1004.7 mb - 0.00 in0.0 mm 0.00 in0.0 mm
07:50 AM 68.9°F20.5°C 55.8°F13.2°C 63% 3.5 mph SSW5.6 kmh SSW 3.5 mph5.6 kmh 29.67 in1004.7 mb - 0.00 in0.0 mm 0.00 in0.0 mm
07:45 AM 68.5°F20.3°C 56.3°F13.5°C 65% 2.3 mph SW3.7 kmh SW 3.5 mph5.6 kmh 29.67 in1004.7 mb - 0.00 in0.0 mm 0.00 in0.0 mm
07:40 AM 67.8°F19.9°C 56.1°F13.4°C 66% 3.5 mph SW5.6 kmh SW 3.5 mph5.6 kmh 29.67 in1004.7 mb - 0.00 in0.0 mm 0.00 in0.0 mm
07:35 AM 67.6°F19.8°C 56.3°F13.5°C 67% 4.6 mph SSW7.4 kmh SSW 4.6 mph7.4 kmh 29.67 in1004.7 mb - 0.00 in0.0 mm 0.00 in0.0 mm
07:30 AM 67.0°F19.4°C 55.7°F13.2°C 67% 4.6 mph SSW7.4 kmh SSW 3.5 mph5.6 kmh 29.67 in1004.7 mb - 0.00 in0.0 mm 0.00 in0.0 mm
07:25 AM 66.7°F19.3°C 55.8°F13.2°C 68% 3.5 mph SSW5.6 kmh SSW 3.5 mph5.6 kmh 29.67 in1004.7 mb - 0.00 in0.0 mm 0.00 in0.0 mm
07:20 AM 66.0°F18.9°C 56.3°F13.5°C 71% 3.5 mph SSW5.6 kmh SSW 4.6 mph7.4 kmh 29.67 in1004.7 mb - 0.00 in0.0 mm 0.00 in0.0 mm
07:15 AM 65.3°F18.5°C 56.0°F13.3°C 72% 2.3 mph S3.7 kmh S 3.5 mph5.6 kmh 29.67 in1004.7 mb - 0.00 in0.0 mm 0.00 in0.0 mm
07:10 AM 64.8°F18.2°C 55.9°F13.3°C 73% 3.5 mph SSW5.6 kmh SSW 3.5 mph5.6 kmh 29.67 in1004.7 mb - 0.00 in0.0 mm 0.00 in0.0 mm
07:00 AM 63.6°F17.6°C 55.2°F12.9°C 74% 3.5 mph SSW5.6 kmh SSW 3.5 mph5.6 kmh 29.66 in1004.4 mb - 0.00 in0.0 mm 0.00 in0.0 mm
06:55 AM 63.1°F17.3°C 55.1°F12.8°C 75% 3.5 mph SSW5.6 kmh SSW 3.5 mph5.6 kmh 29.66 in1004.4 mb - 0.00 in0.0 mm 0.00 in0.0 mm
06:50 AM 62.2°F16.8°C 54.6°F12.6°C 76% 3.5 mph SW5.6 kmh SW 4.6 mph7.4 kmh 29.66 in1004.4 mb - 0.00 in0.0 mm 0.00 in0.0 mm
06:45 AM 61.5°F16.4°C 54.9°F12.7°C 79% 3.5 mph SSW5.6 kmh SSW 4.6 mph7.4 kmh 29.66 in1004.4 mb - 0.00 in0.0 mm 0.00 in0.0 mm
06:40 AM 60.8°F16.0°C 54.6°F12.6°C 80% 3.5 mph SW5.6 kmh SW 4.6 mph7.4 kmh 29.66 in1004.4 mb - 0.00 in0.0 mm 0.00 in0.0 mm
06:35 AM 59.9°F15.5°C 54.0°F12.2°C 81% 3.5 mph SSW5.6 kmh SSW 3.5 mph5.6 kmh 29.66 in1004.4 mb - 0.00 in0.0 mm 0.00 in0.0 mm
06:30 AM 59.1°F15.1°C 53.3°F11.8°C 81% 2.3 mph SSW3.7 kmh SSW 3.5 mph5.6 kmh 29.66 in1004.4 mb - 0.00 in0.0 mm 0.00 in0.0 mm
06:25 AM 58.3°F14.6°C 53.1°F11.7°C 83% 3.5 mph SW5.6 kmh SW 3.5 mph5.6 kmh 29.66 in1004.4 mb - 0.00 in0.0 mm 0.00 in0.0 mm
06:20 AM 57.2°F14.0°C 52.1°F11.2°C 83% 3.5 mph SSW5.6 kmh SSW 3.5 mph5.6 kmh 29.66 in1004.4 mb - 0.00 in0.0 mm 0.00 in0.0 mm
06:15 AM 56.1°F13.4°C 51.4°F10.8°C 84% 3.5 mph SSW5.6 kmh SSW 3.5 mph5.6 kmh 29.66 in1004.4 mb - 0.00 in0.0 mm 0.00 in0.0 mm
06:10 AM 55.3°F12.9°C 51.1°F10.6°C 86% 2.3 mph SSW3.7 kmh SSW 3.5 mph5.6 kmh 29.66 in1004.4 mb - 0.00 in0.0 mm 0.00 in0.0 mm
06:00 AM 52.6°F11.4°C 48.9°F9.4°C 87% 2.3 mph SSW3.7 kmh SSW 2.3 mph3.7 kmh 29.66 in1004.4 mb - 0.00 in0.0 mm 0.00 in0.0 mm
05:55 AM 52.0°F11.1°C 48.5°F9.2°C 88% 2.3 mph SW3.7 kmh SW 2.3 mph3.7 kmh 29.66 in1004.4 mb - 0.00 in0.0 mm 0.00 in0.0 mm
05:50 AM 51.3°F10.7°C 47.8°F8.8°C 88% Calm Calm -- 29.66 in1004.4 mb - 0.00 in0.0 mm 0.00 in0.0 mm
05:45 AM 50.7°F10.4°C 47.6°F8.7°C 89% Calm Calm -- 29.66 in1004.4 mb - 0.00 in0.0 mm 0.00 in0.0 mm
05:40 AM 49.9°F9.9°C 46.5°F8.1°C 88% Calm Calm -- 29.65 in1004.1 mb - 0.00 in0.0 mm 0.00 in0.0 mm
05:35 AM 49.3°F9.6°C 45.9°F7.7°C 88% Calm Calm -- 29.65 in1004.1 mb - 0.00 in0.0 mm 0.00 in0.0 mm
05:30 AM 48.9°F9.4°C 45.2°F7.3°C 87% Calm Calm -- 29.65 in1004.1 mb - 0.00 in0.0 mm 0.00 in0.0 mm
05:25 AM 48.2°F9.0°C 44.5°F6.9°C 87% Calm Calm -- 29.65 in1004.1 mb - 0.00 in0.0 mm 0.00 in0.0 mm
05:20 AM 48.0°F8.9°C 44.3°F6.8°C 87% 1.2 mph WSW1.9 kmh WSW 1.2 mph1.9 kmh 29.65 in1004.1 mb - 0.00 in0.0 mm 0.00 in0.0 mm
05:15 AM 47.7°F8.7°C 43.7°F6.5°C 86% 2.3 mph WSW3.7 kmh WSW 2.3 mph3.7 kmh 29.65 in1004.1 mb - 0.00 in0.0 mm 0.00 in0.0 mm
05:10 AM 47.5°F8.6°C 43.5°F6.4°C 86% Calm Calm -- 29.64 in1003.7 mb - 0.00 in0.0 mm 0.00 in0.0 mm
05:00 AM 47.3°F8.5°C 43.3°F6.3°C 86% Calm Calm -- 29.65 in1004.1 mb - 0.00 in0.0 mm 0.00 in0.0 mm
04:55 AM 47.1°F8.4°C 43.1°F6.2°C 86% Calm Calm -- 29.65 in1004.1 mb - 0.00 in0.0 mm 0.00 in0.0 mm
04:50 AM 47.1°F8.4°C 43.1°F6.2°C 86% Calm Calm -- 29.65 in1004.1 mb - 0.00 in0.0 mm 0.00 in0.0 mm
04:45 AM 47.1°F8.4°C 43.1°F6.2°C 86% Calm Calm -- 29.65 in1004.1 mb - 0.00 in0.0 mm 0.00 in0.0 mm
04:40 AM 47.1°F8.4°C 43.1°F6.2°C 86% Calm Calm -- 29.64 in1003.7 mb - 0.00 in0.0 mm 0.00 in0.0 mm
04:35 AM 47.1°F8.4°C 42.5°F5.8°C 84% Calm Calm -- 29.64 in1003.7 mb - 0.00 in0.0 mm 0.00 in0.0 mm
04:30 AM 47.2°F8.4°C 42.6°F5.9°C 84% Calm Calm -- 29.64 in1003.7 mb - 0.00 in0.0 mm 0.00 in0.0 mm
04:25 AM 47.3°F8.5°C 42.7°F5.9°C 84% Calm Calm -- 29.64 in1003.7 mb - 0.00 in0.0 mm 0.00 in0.0 mm
04:20 AM 47.3°F8.5°C 43.3°F6.3°C 86% Calm Calm -- 29.64 in1003.7 mb - 0.00 in0.0 mm 0.00 in0.0 mm
04:15 AM 47.5°F8.6°C 43.5°F6.4°C 86% 1.2 mph WNW1.9 kmh WNW 1.2 mph1.9 kmh 29.64 in1003.7 mb - 0.00 in0.0 mm 0.00 in0.0 mm
04:10 AM 47.7°F8.7°C 43.7°F6.5°C 86% 1.2 mph WNW1.9 kmh WNW 1.2 mph1.9 kmh 29.64 in1003.7 mb - 0.00 in0.0 mm 0.00 in0.0 mm
04:00 AM 47.7°F8.7°C 43.7°F6.5°C 86% Calm Calm -- 29.64 in1003.7 mb - 0.00 in0.0 mm 0.00 in0.0 mm
03:55 AM 47.7°F8.7°C 43.7°F6.5°C 86% Calm Calm -- 29.65 in1004.1 mb - 0.00 in0.0 mm 0.00 in0.0 mm
03:50 AM 47.8°F8.8°C 43.9°F6.6°C 86% Calm Calm -- 29.65 in1004.1 mb - 0.00 in0.0 mm 0.00 in0.0 mm
03:45 AM 48.0°F8.9°C 44.0°F6.7°C 86% Calm Calm -- 29.65 in1004.1 mb - 0.00 in0.0 mm 0.00 in0.0 mm
03:40 AM 47.8°F8.8°C 43.9°F6.6°C 86% Calm Calm -- 29.65 in1004.1 mb - 0.00 in0.0 mm 0.00 in0.0 mm
03:35 AM 48.0°F8.9°C 44.0°F6.7°C 86% Calm Calm -- 29.65 in1004.1 mb - 0.00 in0.0 mm 0.00 in0.0 mm
03:30 AM 48.2°F9.0°C 44.2°F6.8°C 86% 1.2 mph WNW1.9 kmh WNW 1.2 mph1.9 kmh 29.65 in1004.1 mb - 0.00 in0.0 mm 0.00 in0.0 mm
03:25 AM 48.2°F9.0°C 44.2°F6.8°C 86% 1.2 mph WNW1.9 kmh WNW 1.2 mph1.9 kmh 29.65 in1004.1 mb - 0.00 in0.0 mm 0.00 in0.0 mm
03:20 AM 48.2°F9.0°C 44.5°F6.9°C 87% Calm Calm -- 29.65 in1004.1 mb - 0.00 in0.0 mm 0.00 in0.0 mm
03:15 AM 48.2°F9.0°C 44.2°F6.8°C 86% Calm Calm -- 29.65 in1004.1 mb - 0.00 in0.0 mm 0.00 in0.0 mm
03:10 AM 48.4°F9.1°C 44.4°F6.9°C 86% Calm Calm -- 29.65 in1004.1 mb - 0.00 in0.0 mm 0.00 in0.0 mm
03:00 AM 48.6°F9.2°C 44.6°F7.0°C 86% Calm Calm -- 29.65 in1004.1 mb - 0.00 in0.0 mm 0.00 in0.0 mm
02:55 AM 48.9°F9.4°C 45.5°F7.5°C 88% 1.2 mph WNW1.9 kmh WNW 1.2 mph1.9 kmh 29.64 in1003.7 mb - 0.00 in0.0 mm 0.00 in0.0 mm
02:50 AM 48.9°F9.4°C 45.5°F7.5°C 88% 1.2 mph WNW1.9 kmh WNW 1.2 mph1.9 kmh 29.64 in1003.7 mb - 0.00 in0.0 mm 0.00 in0.0 mm
02:45 AM 48.9°F9.4°C 45.2°F7.3°C 87% 1.2 mph WNW1.9 kmh WNW 2.3 mph3.7 kmh 29.65 in1004.1 mb - 0.00 in0.0 mm 0.00 in0.0 mm
02:40 AM 48.7°F9.3°C 44.4°F6.9°C 85% Calm Calm -- 29.65 in1004.1 mb - 0.00 in0.0 mm 0.00 in0.0 mm
02:35 AM 48.9°F9.4°C 44.3°F6.8°C 84% Calm Calm -- 29.65 in1004.1 mb - 0.00 in0.0 mm 0.00 in0.0 mm
02:30 AM 48.9°F9.4°C 44.3°F6.8°C 84% Calm Calm -- 29.65 in1004.1 mb - 0.00 in0.0 mm 0.00 in0.0 mm
02:25 AM 49.1°F9.5°C 44.5°F6.9°C 84% Calm Calm -- 29.64 in1003.7 mb - 0.00 in0.0 mm 0.00 in0.0 mm
02:20 AM 49.3°F9.6°C 45.3°F7.4°C 86% 1.2 mph W1.9 kmh W 1.2 mph1.9 kmh 29.64 in1003.7 mb - 0.00 in0.0 mm 0.00 in0.0 mm
02:15 AM 49.4°F9.7°C 46.0°F7.8°C 88% Calm Calm -- 29.65 in1004.1 mb - 0.00 in0.0 mm 0.00 in0.0 mm
02:10 AM 49.6°F9.8°C 46.2°F7.9°C 88% Calm Calm -- 29.65 in1004.1 mb - 0.00 in0.0 mm 0.00 in0.0 mm
02:00 AM 49.3°F9.6°C 44.3°F6.8°C 83% 2.3 mph SSW3.7 kmh SSW 1.2 mph1.9 kmh 29.65 in1004.1 mb - 0.00 in0.0 mm 0.00 in0.0 mm
01:55 AM 49.6°F9.8°C 45.0°F7.2°C 84% Calm Calm -- 29.65 in1004.1 mb - 0.00 in0.0 mm 0.00 in0.0 mm
01:50 AM 49.6°F9.8°C 45.0°F7.2°C 84% Calm Calm -- 29.65 in1004.1 mb - 0.00 in0.0 mm 0.00 in0.0 mm
01:45 AM 50.0°F10.0°C 46.3°F7.9°C 87% Calm Calm 1.2 mph1.9 kmh 29.65 in1004.1 mb - 0.00 in0.0 mm 0.00 in0.0 mm
01:40 AM 50.1°F10.1°C 46.7°F8.2°C 88% Calm Calm 1.2 mph1.9 kmh 29.65 in1004.1 mb - 0.00 in0.0 mm 0.00 in0.0 mm
01:35 AM 49.8°F9.9°C 44.9°F7.2°C 83% Calm Calm -- 29.65 in1004.1 mb - 0.00 in0.0 mm 0.00 in0.0 mm
01:30 AM 50.0°F10.0°C 44.7°F7.1°C 82% Calm Calm -- 29.65 in1004.1 mb - 0.00 in0.0 mm 0.00 in0.0 mm
01:25 AM 50.0°F10.0°C 44.7°F7.1°C 82% Calm Calm -- 29.65 in1004.1 mb - 0.00 in0.0 mm 0.00 in0.0 mm
01:20 AM 50.2°F10.1°C 44.9°F7.2°C 82% Calm Calm -- 29.65 in1004.1 mb - 0.00 in0.0 mm 0.00 in0.0 mm
01:15 AM 50.4°F10.2°C 45.1°F7.3°C 82% Calm Calm -- 29.65 in1004.1 mb - 0.00 in0.0 mm 0.00 in0.0 mm
01:10 AM 50.5°F10.3°C 45.6°F7.6°C 83% Calm Calm -- 29.66 in1004.4 mb - 0.00 in0.0 mm 0.00 in0.0 mm
01:00 AM 50.7°F10.4°C 47.0°F8.3°C 87% Calm Calm -- 29.66 in1004.4 mb - 0.00 in0.0 mm 0.00 in0.0 mm
12:55 AM 50.9°F10.5°C 46.2°F7.9°C 84% Calm Calm -- 29.66 in1004.4 mb - 0.00 in0.0 mm 0.00 in0.0 mm
12:50 AM 50.9°F10.5°C 45.6°F7.6°C 82% Calm Calm -- 29.66 in1004.4 mb - 0.00 in0.0 mm 0.00 in0.0 mm
12:45 AM 50.9°F10.5°C 45.6°F7.6°C 82% Calm Calm -- 29.66 in1004.4 mb - 0.00 in0.0 mm 0.00 in0.0 mm
12:40 AM 50.9°F10.5°C 45.6°F7.6°C 82% Calm Calm -- 29.66 in1004.4 mb - 0.00 in0.0 mm 0.00 in0.0 mm
12:35 AM 50.9°F10.5°C 45.6°F7.6°C 82% Calm Calm -- 29.66 in1004.4 mb - 0.00 in0.0 mm 0.00 in0.0 mm
12:30 AM 51.1°F10.6°C 45.5°F7.5°C 81% Calm Calm -- 29.66 in1004.4 mb - 0.00 in0.0 mm 0.00 in0.0 mm
12:25 AM 51.3°F10.7°C 46.0°F7.8°C 82% Calm Calm -- 29.66 in1004.4 mb - 0.00 in0.0 mm 0.00 in0.0 mm
12:20 AM 51.4°F10.8°C 46.1°F7.8°C 82% Calm Calm -- 29.66 in1004.4 mb - 0.00 in0.0 mm 0.00 in0.0 mm
12:15 AM 51.6°F10.9°C 46.3°F7.9°C 82% Calm Calm -- 29.66 in1004.4 mb - 0.00 in0.0 mm 0.00 in0.0 mm
12:10 AM 51.7°F10.9°C 46.7°F8.2°C 83% Calm Calm -- 29.66 in1004.4 mb - 0.00 in0.0 mm 0.00 in0.0 mm
12:00 AM 51.8°F11.0°C 46.5°F8.1°C 82% Calm Calm -- 29.66 in1004.4 mb - 0.00 in0.0 mm 0.00 in0.0 mm